Time,TemperatureF,DewpointF,PressureIn,WindDirection,WindDirectionDegrees,WindSpeedMPH,WindSpeedGustMPH,Humidity,HourlyPrecipIn,Conditions,Clouds,dailyrainin,SoftwareType,DateUTC
2013-03-07 00:14:00,32.4,28.0,30.24,NNE,21,2.0,-999.0,82,-99.99,,,0.00,weatherlink.com 1.10,2013-03-07 05:14:00,
2013-03-07 00:29:00,32.2,27.0,30.24,NNE,20,0.0,-999.0,81,-99.99,,,0.00,weatherlink.com 1.10,2013-03-07 05:29:00,
2013-03-07 00:44:00,31.0,27.0,30.24,NNE,20,0.0,-999.0,84,-99.99,,,0.00,weatherlink.com 1.10,2013-03-07 05:44:00,
2013-03-07 00:59:00,30.3,26.0,30.24,NNE,20,0.0,-999.0,85,-99.99,,,0.00,weatherlink.com 1.10,2013-03-07 05:59:00,
2013-03-07 01:14:00,30.2,27.0,30.24,NNE,20,0.0,-999.0,86,-99.99,,,0.00,weatherlink.com 1.10,2013-03-07 06:14:00,
2013-03-07 01:29:00,29.9,27.0,30.24,NNE,19,1.0,-999.0,87,-99.99,,,0.00,weatherlink.com 1.10,2013-03-07 06:29:00,
2013-03-07 01:44:00,30.0,26.0,30.24,NNE,19,0.0,-999.0,86,-99.99,,,0.00,weatherlink.com 1.10,2013-03-07 06:44:00,
2013-03-07 01:59:00,30.1,26.0,30.25,NE,39,0.0,-999.0,85,-99.99,,,0.00,weatherlink.com 1.10,2013-03-07 06:59:00,
2013-03-07 02:56:00,29.6,26.0,30.24,NE,39,0.0,-999.0,86,-99.99,,,0.00,weatherlink.com 1.10,2013-03-07 07:56:00,
2013-03-07 03:15:00,29.4,26.0,30.25,NE,39,0.0,-999.0,86,-99.99,,,0.00,weatherlink.com 1.10,2013-03-07 08:15:00,
2013-03-07 03:30:00,28.3,25.0,30.24,NE,34,0.0,-999.0,88,-99.99,,,0.00,weatherlink.com 1.10,2013-03-07 08:30:00,
2013-03-07 03:45:00,27.8,25.0,30.24,NE,34,0.0,-999.0,88,-99.99,,,0.00,weatherlink.com 1.10,2013-03-07 08:45:00,
2013-03-07 04:00:00,27.5,25.0,30.24,NE,34,0.0,-999.0,90,-99.99,,,0.00,weatherlink.com 1.10,2013-03-07 09:00:00,
2013-03-07 04:15:00,27.4,25.0,30.24,NE,34,0.0,-999.0,90,-99.99,,,0.00,weatherlink.com 1.10,2013-03-07 09:15:00,
2013-03-07 04:45:00,27.8,25.0,30.24,NE,34,0.0,-999.0,90,-99.99,,,0.00,weatherlink.com 1.10,2013-03-07 09:45:00,
2013-03-07 05:00:00,27.8,25.0,30.25,NE,34,0.0,-999.0,90,-99.99,,,0.00,weatherlink.com 1.10,2013-03-07 10:00:00,
2013-03-07 05:15:00,27.9,25.0,30.26,NE,34,2.0,-999.0,90,-99.99,,,0.00,weatherlink.com 1.10,2013-03-07 10:15:00,
2013-03-07 05:30:00,27.7,25.0,30.26,NE,34,0.0,-999.0,90,-99.99,,,0.00,weatherlink.com 1.10,2013-03-07 10:30:00,
2013-03-07 05:44:00,27.7,26.0,30.27,NE,34,2.0,-999.0,91,-99.99,,,0.00,weatherlink.com 1.10,2013-03-07 10:44:00,
2013-03-07 06:00:00,27.5,25.0,30.27,NE,34,0.0,-999.0,91,-99.99,,,0.00,weatherlink.com 1.10,2013-03-07 11:00:00,
2013-03-07 06:15:00,27.4,25.0,30.27,NE,34,4.0,-999.0,91,-99.99,,,0.00,weatherlink.com 1.10,2013-03-07 11:15:00,
2013-03-07 06:30:00,27.6,25.0,30.27,NE,35,0.0,-999.0,91,-99.99,,,0.00,weatherlink.com 1.10,2013-03-07 11:30:00,
2013-03-07 06:45:00,27.6,25.0,30.28,NE,35,0.0,-999.0,90,-99.99,,,0.00,weatherlink.com 1.10,2013-03-07 11:45:00,
2013-03-07 07:00:00,27.7,25.0,30.29,NE,35,0.0,-999.0,90,-99.99,,,0.00,weatherlink.com 1.10,2013-03-07 12:00:00,
2013-03-07 07:15:00,27.7,26.0,30.29,NE,35,0.0,-999.0,91,-99.99,,,0.00,weatherlink.com 1.10,2013-03-07 12:15:00,
2013-03-07 07:30:00,27.6,25.0,30.30,NE,35,0.0,-999.0,90,-99.99,,,0.00,weatherlink.com 1.10,2013-03-07 12:30:00,
2013-03-07 07:45:00,27.8,26.0,30.30,NE,35,0.0,-999.0,91,-99.99,,,0.00,weatherlink.com 1.10,2013-03-07 12:45:00,
2013-03-07 08:00:00,28.1,26.0,30.30,NE,35,0.0,-999.0,91,-99.99,,,0.00,weatherlink.com 1.10,2013-03-07 13:00:00,
2013-03-07 08:15:00,28.9,27.0,30.30,NE,35,0.0,-999.0,91,-99.99,,,0.00,weatherlink.com 1.10,2013-03-07 13:15:00,
2013-03-07 08:30:00,29.4,27.0,30.30,NE,35,0.0,-999.0,89,-99.99,,,0.00,weatherlink.com 1.10,2013-03-07 13:30:00,
2013-03-07 08:45:00,30.3,28.0,30.30,NE,34,3.0,-999.0,89,-99.99,,,0.00,weatherlink.com 1.10,2013-03-07 13:45:00,
2013-03-07 09:00:00,31.0,28.0,30.31,NE,37,4.0,-999.0,87,-99.99,,,0.00,weatherlink.com 1.10,2013-03-07 14:00:00,
2013-03-07 09:15:00,31.4,28.0,30.32,NNE,16,6.0,-999.0,86,-99.99,,,0.00,weatherlink.com 1.10,2013-03-07 14:15:00,
2013-03-07 09:30:00,31.8,28.0,30.31,NE,49,5.0,-999.0,85,-99.99,,,0.00,weatherlink.com 1.10,2013-03-07 14:30:00,
2013-03-07 09:45:00,32.7,29.0,30.32,ENE,67,6.0,-999.0,85,-99.99,,,0.00,weatherlink.com 1.10,2013-03-07 14:45:00,
2013-03-07 10:00:00,32.9,28.0,30.32,NE,48,5.0,-999.0,82,-99.99,,,0.00,weatherlink.com 1.10,2013-03-07 15:00:00,
2013-03-07 10:15:00,33.4,28.0,30.30,NE,47,7.0,-999.0,81,-99.99,,,0.00,weatherlink.com 1.10,2013-03-07 15:15:00,
2013-03-07 10:30:00,34.5,29.0,30.30,NNE,30,6.0,-999.0,80,-99.99,,,0.00,weatherlink.com 1.10,2013-03-07 15:30:00,
2013-03-07 10:45:00,35.2,29.0,30.32,NE,44,5.0,-999.0,79,-99.99,,,0.00,weatherlink.com 1.10,2013-03-07 15:45:00,
2013-03-07 11:00:00,35.6,29.0,30.31,NE,36,7.0,-999.0,78,-99.99,,,0.00,weatherlink.com 1.10,2013-03-07 16:00:00,
2013-03-07 11:15:00,36.6,30.0,30.30,East,96,0.0,-999.0,77,-99.99,,,0.00,weatherlink.com 1.10,2013-03-07 16:15:00,
2013-03-07 11:30:00,37.8,30.0,30.31,ENE,62,0.0,-999.0,74,-99.99,,,0.00,weatherlink.com 1.10,2013-03-07 16:30:00,
2013-03-07 11:45:00,38.8,31.0,30.30,ENE,75,0.0,-999.0,73,-99.99,,,0.00,weatherlink.com 1.10,2013-03-07 16:45:00,
2013-03-07 12:00:00,39.9,31.0,30.30,NNE,17,5.0,-999.0,70,-99.99,,,0.00,weatherlink.com 1.10,2013-03-07 17:00:00,
2013-03-07 12:15:00,40.4,31.0,30.30,NNW,336,7.0,-999.0,69,-99.99,,,0.00,weatherlink.com 1.10,2013-03-07 17:15:00,
2013-03-07 12:30:00,41.3,31.0,30.29,NNE,31,2.0,-999.0,67,-99.99,,,0.00,weatherlink.com 1.10,2013-03-07 17:30:00,
2013-03-07 12:45:00,41.7,31.0,30.29,NNW,346,3.0,-999.0,65,-99.99,,,0.00,weatherlink.com 1.10,2013-03-07 17:45:00,
2013-03-07 13:00:00,43.0,31.0,30.29,NNW,332,0.0,-999.0,62,-99.99,,,0.00,weatherlink.com 1.10,2013-03-07 18:00:00,
2013-03-07 13:16:00,44.4,32.0,30.28,North,11,0.0,-999.0,61,-99.99,,,0.00,weatherlink.com 1.10,2013-03-07 18:16:00,
2013-03-07 13:31:00,45.3,32.0,30.27,NNE,26,10.0,-999.0,61,-99.99,,,0.00,weatherlink.com 1.10,2013-03-07 18:31:00,
2013-03-07 13:46:00,46.0,33.0,30.27,NNW,348,8.0,-999.0,60,-99.99,,,0.00,weatherlink.com 1.10,2013-03-07 18:46:00,
2013-03-07 14:01:00,46.8,33.0,30.26,NNW,340,9.0,-999.0,58,-99.99,,,0.00,weatherlink.com 1.10,2013-03-07 19:01:00,
2013-03-07 14:16:00,47.3,33.0,30.24,NE,40,1.0,-999.0,58,-99.99,,,0.00,weatherlink.com 1.10,2013-03-07 19:16:00,
2013-03-07 14:31:00,48.3,33.0,30.24,North,360,9.0,-999.0,55,-99.99,,,0.00,weatherlink.com 1.10,2013-03-07 19:31:00,
2013-03-07 14:46:00,48.1,33.0,30.24,NNE,24,8.0,-999.0,56,-99.99,,,0.00,weatherlink.com 1.10,2013-03-07 19:46:00,
2013-03-07 15:16:00,49.7,34.0,30.24,North,10,6.0,-999.0,55,-99.99,,,0.00,weatherlink.com 1.10,2013-03-07 20:16:00,
2013-03-07 15:31:00,49.2,33.0,30.24,NNE,24,9.0,-999.0,53,-99.99,,,0.00,weatherlink.com 1.10,2013-03-07 20:31:00,
2013-03-07 15:46:00,48.9,32.0,30.24,WNW,286,5.0,-999.0,53,-99.99,,,0.00,weatherlink.com 1.10,2013-03-07 20:46:00,
2013-03-07 16:01:00,49.6,33.0,30.25,North,9,7.0,-999.0,53,-99.99,,,0.00,weatherlink.com 1.10,2013-03-07 21:01:00,
2013-03-07 16:16:00,49.9,32.0,30.24,NNW,337,9.0,-999.0,50,-99.99,,,0.00,weatherlink.com 1.10,2013-03-07 21:16:00,
2013-03-07 16:31:00,50.1,33.0,30.24,North,351,7.0,-999.0,52,-99.99,,,0.00,weatherlink.com 1.10,2013-03-07 21:31:00,
2013-03-07 16:46:00,49.6,32.0,30.25,NNE,24,9.0,-999.0,51,-99.99,,,0.00,weatherlink.com 1.10,2013-03-07 21:46:00,
2013-03-07 17:01:00,49.6,32.0,30.24,NNE,16,8.0,-999.0,52,-99.99,,,0.00,weatherlink.com 1.10,2013-03-07 22:01:00,
2013-03-07 17:16:00,49.6,33.0,30.25,North,355,12.0,-999.0,53,-99.99,,,0.00,weatherlink.com 1.10,2013-03-07 22:16:00,
2013-03-07 17:31:00,49.3,33.0,30.24,NNE,14,4.0,-999.0,54,-99.99,,,0.00,weatherlink.com 1.10,2013-03-07 22:31:00,
2013-03-07 17:46:00,49.6,33.0,30.24,NW,312,5.0,-999.0,54,-99.99,,,0.00,weatherlink.com 1.10,2013-03-07 22:46:00,
2013-03-07 18:01:00,48.5,34.0,30.25,North,350,8.0,-999.0,57,-99.99,,,0.00,weatherlink.com 1.10,2013-03-07 23:01:00,
2013-03-07 18:16:00,47.7,33.0,30.25,North,355,6.0,-999.0,58,-99.99,,,0.00,weatherlink.com 1.10,2013-03-07 23:16:00,
2013-03-07 18:31:00,46.8,33.0,30.26,North,355,3.0,-999.0,59,-99.99,,,0.00,weatherlink.com 1.10,2013-03-07 23:31:00,
2013-03-07 18:46:00,46.0,33.0,30.27,North,355,4.0,-999.0,62,-99.99,,,0.00,weatherlink.com 1.10,2013-03-07 23:46:00,
2013-03-07 19:01:00,45.1,33.0,30.27,North,355,4.0,-999.0,63,-99.99,,,0.00,weatherlink.com 1.10,2013-03-08 00:01:00,
2013-03-07 19:16:00,44.4,33.0,30.27,North,360,4.0,-999.0,65,-99.99,,,0.00,weatherlink.com 1.10,2013-03-08 00:16:00,
2013-03-07 19:31:00,43.7,33.0,30.28,North,360,4.0,-999.0,66,-99.99,,,0.00,weatherlink.com 1.10,2013-03-08 00:31:00,
2013-03-07 19:46:00,43.0,33.0,30.28,NNE,15,4.0,-999.0,67,-99.99,,,0.00,weatherlink.com 1.10,2013-03-08 00:46:00,
2013-03-07 20:01:00,42.4,33.0,30.28,North,5,4.0,-999.0,70,-99.99,,,0.00,weatherlink.com 1.10,2013-03-08 01:01:00,
2013-03-07 20:17:00,41.9,33.0,30.27,North,355,4.0,-999.0,71,-99.99,,,0.00,weatherlink.com 1.10,2013-03-08 01:17:00,
2013-03-07 20:47:00,41.0,33.0,30.27,North,355,3.0,-999.0,73,-99.99,,,0.00,weatherlink.com 1.10,2013-03-08 01:47:00,
2013-03-07 21:02:00,40.3,33.0,30.27,North,11,4.0,-999.0,74,-99.99,,,0.00,weatherlink.com 1.10,2013-03-08 02:02:00,
2013-03-07 21:17:00,39.5,33.0,30.27,NNE,26,0.0,-999.0,76,-99.99,,,0.00,weatherlink.com 1.10,2013-03-08 02:17:00,
2013-03-07 21:32:00,39.5,32.0,30.27,NE,53,5.0,-999.0,75,-99.99,,,0.00,weatherlink.com 1.10,2013-03-08 02:32:00,
2013-03-07 21:47:00,39.2,32.0,30.27,NE,34,6.0,-999.0,75,-99.99,,,0.00,weatherlink.com 1.10,2013-03-08 02:47:00,
2013-03-07 22:02:00,38.7,31.0,30.27,NE,50,6.0,-999.0,75,-99.99,,,0.00,weatherlink.com 1.10,2013-03-08 03:02:00,
2013-03-07 22:17:00,38.2,31.0,30.26,NNE,33,3.0,-999.0,76,-99.99,,,0.00,weatherlink.com 1.10,2013-03-08 03:17:00,
2013-03-07 22:32:00,37.8,31.0,30.26,ENE,74,0.0,-999.0,77,-99.99,,,0.00,weatherlink.com 1.10,2013-03-08 03:32:00,
2013-03-07 22:47:00,37.4,31.0,30.27,ENE,74,0.0,-999.0,78,-99.99,,,0.00,weatherlink.com 1.10,2013-03-08 03:47:00,
2013-03-07 23:02:00,36.7,31.0,30.27,ENE,74,0.0,-999.0,80,-99.99,,,0.00,weatherlink.com 1.10,2013-03-08 04:02:00,
2013-03-07 23:17:00,35.4,30.0,30.27,ENE,74,0.0,-999.0,82,-99.99,,,0.00,weatherlink.com 1.10,2013-03-08 04:17:00,
2013-03-07 23:32:00,35.0,31.0,30.26,ENE,74,0.0,-999.0,84,-99.99,,,0.00,weatherlink.com 1.10,2013-03-08 04:32:00,
2013-03-07 23:47:00,35.1,31.0,30.26,ENE,74,0.0,-999.0,84,-99.99,,,0.00,weatherlink.com 1.10,2013-03-08 04:47:00,